createdAt,value
2023-05-17T00:00:31.450Z,637.00
2023-05-17T00:01:30.493Z,664.00
2023-05-17T00:02:31.542Z,642.00
2023-05-17T00:03:31.408Z,645.00
2023-05-17T00:04:31.484Z,646.00
2023-05-17T00:05:31.378Z,622.00
2023-05-17T00:06:30.457Z,626.00
2023-05-17T00:07:30.365Z,630.00
2023-05-17T00:08:31.428Z,616.00
2023-05-17T00:09:30.410Z,607.00
2023-05-17T00:10:30.460Z,599.00
2023-05-17T00:11:30.404Z,640.00
2023-05-17T00:12:31.343Z,690.00
2023-05-17T00:13:30.356Z,644.00
2023-05-17T00:14:31.359Z,623.00
2023-05-17T00:15:30.309Z,594.00
2023-05-17T00:16:31.392Z,576.00
2023-05-17T00:17:31.354Z,551.00
2023-05-17T00:18:31.355Z,592.00
2023-05-17T00:19:30.302Z,653.00
2023-05-17T00:20:31.381Z,755.00
2023-05-17T00:21:31.386Z,763.00
2023-05-17T00:22:30.493Z,840.00
2023-05-17T00:23:30.467Z,841.00
2023-05-17T00:24:31.542Z,760.00
2023-05-17T00:25:31.750Z,686.00
2023-05-17T00:26:31.708Z,642.00
2023-05-17T00:27:31.725Z,782.00
2023-05-17T00:28:30.656Z,900.00
2023-05-17T00:29:31.742Z,912.00
2023-05-17T00:30:31.685Z,819.00
2023-05-17T00:31:31.744Z,740.00
2023-05-17T00:32:30.717Z,763.00
2023-05-17T00:33:30.803Z,775.00
2023-05-17T00:34:30.830Z,766.00
2023-05-17T00:35:30.950Z,765.00
2023-05-17T00:36:31.839Z,791.00
2023-05-17T00:37:31.923Z,814.00
2023-05-17T00:38:31.905Z,804.00
2023-05-17T00:39:31.027Z,904.00
2023-05-17T00:40:31.953Z,949.00
2023-05-17T00:41:31.013Z,877.00
2023-05-17T00:42:32.143Z,858.00
2023-05-17T00:43:32.025Z,840.00
2023-05-17T00:44:31.062Z,953.00
2023-05-17T00:45:31.037Z,1019.00
2023-05-17T00:46:31.081Z,1046.00
2023-05-17T00:47:32.163Z,984.00
2023-05-17T00:48:31.226Z,897.00
2023-05-17T00:49:32.309Z,834.00
2023-05-17T00:50:31.288Z,838.00
2023-05-17T00:51:32.257Z,803.00
2023-05-17T00:52:32.320Z,777.00
2023-05-17T00:53:32.300Z,808.00
2023-05-17T00:54:32.410Z,886.00
2023-05-17T00:55:32.444Z,826.00
2023-05-17T00:56:32.401Z,847.00
2023-05-17T00:57:32.423Z,894.00
2023-05-17T00:58:32.521Z,904.00
2023-05-17T00:59:31.470Z,974.00
2023-05-17T01:00:31.528Z,1020.00
2023-05-17T01:01:32.521Z,1102.00
2023-05-17T01:02:31.663Z,1097.00
2023-05-17T01:03:32.586Z,1099.00
2023-05-17T01:04:32.699Z,895.00
2023-05-17T01:05:32.645Z,885.00
2023-05-17T01:06:31.699Z,919.00
2023-05-17T01:07:31.723Z,866.00
2023-05-17T01:08:32.681Z,784.00
2023-05-17T01:09:32.757Z,736.00
2023-05-17T01:10:32.754Z,724.00
2023-05-17T01:11:32.763Z,731.00
2023-05-17T01:12:32.775Z,963.00
2023-05-17T01:13:32.847Z,933.00
2023-05-17T01:14:32.915Z,914.00
2023-05-17T01:15:31.900Z,899.00
2023-05-17T01:16:32.893Z,826.00
2023-05-17T01:17:31.932Z,795.00
2023-05-17T01:18:33.003Z,794.00
2023-05-17T01:19:33.060Z,749.00
2023-05-17T01:33:33.387Z,500.00
2023-05-17T01:34:33.947Z,500.00
2023-05-17T01:35:34.000Z,500.00
2023-05-17T01:36:34.014Z,500.00
2023-05-17T02:16:18.426Z,500.00
2023-05-17T02:17:19.166Z,500.00
2023-05-17T02:18:18.951Z,500.00
2023-05-17T02:19:18.009Z,500.00
2023-05-17T02:20:19.102Z,500.00
2023-05-17T02:21:18.554Z,500.00
2023-05-17T02:22:17.766Z,400.00
2023-05-17T02:23:17.833Z,400.00
2023-05-17T02:24:18.739Z,400.00
2023-05-17T02:25:17.848Z,400.00
2023-05-17T02:26:17.727Z,400.00
2023-05-17T02:27:18.777Z,400.00
2023-05-17T02:28:18.735Z,400.00
2023-05-17T02:29:18.790Z,400.00
2023-05-17T02:30:18.756Z,400.00
2023-05-17T02:31:17.737Z,400.00
2023-05-17T02:32:17.785Z,400.00
2023-05-17T02:33:18.774Z,400.00
2023-05-17T02:34:17.703Z,400.00
2023-05-17T02:35:17.732Z,400.00
2023-05-17T02:36:17.835Z,400.00
2023-05-17T02:37:18.797Z,400.00
2023-05-17T02:38:18.887Z,400.00
2023-05-17T02:39:18.859Z,400.00
2023-05-17T02:40:17.898Z,400.00
2023-05-17T02:41:17.848Z,400.00
2023-05-17T02:42:18.896Z,400.00
2023-05-17T02:43:18.892Z,400.00
2023-05-17T02:44:18.059Z,435.00
2023-05-17T02:45:18.050Z,487.00
2023-05-17T02:46:19.038Z,500.00
2023-05-17T02:47:19.149Z,499.00
2023-05-17T02:48:18.402Z,523.00
2023-05-17T02:49:18.167Z,549.00
2023-05-17T02:50:18.195Z,537.00
2023-05-17T02:51:18.207Z,500.00
2023-05-17T02:52:19.209Z,498.00
2023-05-17T02:53:19.270Z,500.00
2023-05-17T02:54:18.336Z,502.00
2023-05-17T02:55:19.361Z,500.00
2023-05-17T02:56:19.445Z,479.00
2023-05-17T02:57:19.444Z,503.00
2023-05-17T02:58:19.502Z,506.00
2023-05-17T02:59:18.570Z,500.00
2023-05-17T03:00:18.562Z,506.00
2023-05-17T03:01:19.580Z,501.00
2023-05-17T03:02:19.665Z,503.00
2023-05-17T03:03:19.826Z,500.00
2023-05-17T03:04:18.843Z,500.00
2023-05-17T03:05:18.817Z,516.00
2023-05-17T03:06:19.817Z,517.00
2023-05-17T03:07:19.782Z,501.00
2023-05-17T03:08:18.896Z,509.00
2023-05-17T03:09:19.846Z,516.00
2023-05-17T03:10:18.923Z,500.00
2023-05-17T03:11:19.909Z,512.00
2023-05-17T03:12:19.003Z,505.00
2023-05-17T03:13:20.098Z,557.00
2023-05-17T03:14:19.117Z,507.00
2023-05-17T03:15:19.177Z,532.00
2023-05-17T03:16:20.160Z,494.00
2023-05-17T03:17:19.180Z,500.00
2023-05-17T03:18:20.326Z,498.00
2023-05-17T03:19:20.479Z,504.00
2023-05-17T03:20:20.220Z,500.00
2023-05-17T03:21:20.251Z,515.00
2023-05-17T03:22:19.255Z,500.00
2023-05-17T03:23:20.297Z,524.00
2023-05-17T03:24:19.329Z,562.00
2023-05-17T03:25:19.386Z,559.00
2023-05-17T03:26:19.403Z,571.00
2023-05-17T03:27:20.469Z,633.00
2023-05-17T03:28:20.481Z,613.00
2023-05-17T03:29:20.605Z,591.00
2023-05-17T03:30:20.630Z,635.00
2023-05-17T03:31:20.683Z,704.00
2023-05-17T03:32:19.675Z,737.00
2023-05-17T03:33:20.837Z,767.00
2023-05-17T03:34:20.836Z,812.00
2023-05-17T03:35:20.990Z,695.00
2023-05-17T03:36:20.875Z,629.00
2023-05-17T03:37:20.908Z,612.00
2023-05-17T03:38:20.965Z,645.00
2023-05-17T03:39:20.098Z,632.00
2023-05-17T03:40:21.121Z,707.00
2023-05-17T03:41:20.167Z,762.00
2023-05-17T03:42:20.210Z,837.00
2023-05-17T03:43:21.263Z,701.00
2023-05-17T03:44:21.247Z,655.00
2023-05-17T03:45:20.312Z,749.00
2023-05-17T03:46:20.367Z,832.00
2023-05-17T03:47:20.324Z,854.00
2023-05-17T03:48:20.383Z,682.00
2023-05-17T03:49:21.479Z,694.00
2023-05-17T03:50:21.501Z,655.00
2023-05-17T03:51:20.555Z,599.00
2023-05-17T03:52:21.570Z,577.00
2023-05-17T03:53:20.598Z,574.00
2023-05-17T03:54:20.586Z,574.00
2023-05-17T03:55:21.692Z,618.00
2023-05-17T03:56:20.667Z,641.00
2023-05-17T03:57:21.708Z,709.00
2023-05-17T03:58:20.752Z,677.00
2023-05-17T03:59:20.820Z,706.00
2023-05-17T04:00:21.831Z,653.00
2023-05-17T04:01:20.942Z,577.00
2023-05-17T04:02:20.854Z,606.00
2023-05-17T04:03:20.936Z,622.00
2023-05-17T04:04:21.003Z,649.00
2023-05-17T04:05:22.029Z,622.00
2023-05-17T04:06:22.001Z,623.00
2023-05-17T04:07:22.175Z,602.00
2023-05-17T04:08:21.059Z,595.00
2023-05-17T04:09:21.113Z,604.00
2023-05-17T04:10:22.138Z,608.00
2023-05-17T04:11:22.177Z,641.00
2023-05-17T04:12:21.216Z,628.00
2023-05-17T04:13:22.233Z,591.00
2023-05-17T04:14:21.308Z,680.00
2023-05-17T04:15:22.050Z,661.00
2023-05-17T04:16:21.362Z,655.00
2023-05-17T04:17:22.449Z,721.00
2023-05-17T04:18:21.530Z,692.00
2023-05-17T04:19:21.649Z,678.00
2023-05-17T04:20:22.481Z,611.00
2023-05-17T04:21:22.519Z,605.00
2023-05-17T04:22:22.479Z,603.00
2023-05-17T04:23:22.685Z,514.00
2023-05-17T04:24:21.523Z,500.00
2023-05-17T04:25:22.615Z,539.00
2023-05-17T04:26:21.547Z,548.00
2023-05-17T04:27:21.615Z,594.00
2023-05-17T04:28:21.596Z,622.00
2023-05-17T04:29:21.603Z,590.00
2023-05-17T04:30:22.616Z,594.00
2023-05-17T04:31:21.599Z,609.00
2023-05-17T04:32:22.667Z,579.00
2023-05-17T04:33:22.724Z,520.00
2023-05-17T04:34:21.858Z,400.00
2023-05-17T04:35:21.744Z,440.00
2023-05-17T04:36:22.917Z,594.00
2023-05-17T04:37:22.787Z,616.00
2023-05-17T04:38:22.832Z,616.00
2023-05-17T04:39:21.888Z,589.00
2023-05-17T04:40:22.919Z,586.00
2023-05-17T04:41:21.961Z,651.00
2023-05-17T04:42:22.970Z,624.00
2023-05-17T04:43:22.956Z,569.00
2023-05-17T04:44:22.032Z,564.00
2023-05-17T04:45:23.025Z,583.00
2023-05-17T04:46:22.040Z,534.00
2023-05-17T04:47:23.075Z,558.00
2023-05-17T04:48:23.226Z,556.00
2023-05-17T04:49:23.010Z,553.00
2023-05-17T04:50:22.064Z,571.00
2023-05-17T04:51:23.122Z,546.00
2023-05-17T04:52:23.166Z,536.00
2023-05-17T04:53:23.188Z,509.00
2023-05-17T04:54:23.165Z,500.00
2023-05-17T04:55:23.381Z,509.00
2023-05-17T04:56:22.237Z,499.00
2023-05-17T04:57:23.233Z,536.00
2023-05-17T04:58:23.263Z,570.00
2023-05-17T04:59:23.280Z,573.00
2023-05-17T05:00:22.347Z,576.00
2023-05-17T05:01:23.378Z,611.00
2023-05-17T05:02:22.439Z,599.00
2023-05-17T05:03:23.548Z,646.00
2023-05-17T05:04:23.554Z,725.00
2023-05-17T05:05:23.616Z,733.00
2023-05-17T05:06:22.700Z,750.00
2023-05-17T05:07:23.660Z,877.00
2023-05-17T05:08:22.644Z,829.00
2023-05-17T05:09:23.696Z,773.00
2023-05-17T05:10:22.667Z,957.00
2023-05-17T05:11:23.803Z,1057.00
2023-05-17T05:12:23.719Z,935.00
2023-05-17T05:13:23.761Z,807.00
2023-05-17T05:14:23.785Z,733.00
2023-05-17T05:15:22.866Z,665.00
2023-05-17T05:16:23.824Z,957.00
2023-05-17T05:17:23.930Z,867.00
2023-05-17T05:18:23.017Z,778.00
2023-05-17T05:19:23.036Z,754.00
2023-05-17T05:21:23.187Z,634.00
2023-05-17T05:22:23.068Z,667.00
2023-05-17T05:23:24.058Z,705.00
2023-05-17T05:24:23.144Z,854.00
2023-05-17T05:25:24.218Z,942.00
2023-05-17T05:26:24.255Z,980.00
2023-05-17T05:27:24.322Z,1238.00
2023-05-17T05:28:24.294Z,1268.00
2023-05-17T05:29:23.382Z,904.00
2023-05-17T05:30:24.340Z,777.00
2023-05-17T05:31:23.343Z,645.00
2023-05-17T05:32:24.441Z,591.00
2023-05-17T05:33:23.613Z,593.00
2023-05-17T05:34:24.512Z,666.00
2023-05-17T05:35:23.462Z,597.00
2023-05-17T05:36:24.509Z,615.00
2023-05-17T05:37:24.542Z,637.00
2023-05-17T05:38:24.542Z,587.00
2023-05-17T05:39:24.583Z,530.00
2023-05-17T05:43:44.691Z,500.00
2023-05-17T05:44:45.568Z,500.00
2023-05-17T05:45:45.685Z,500.00
2023-05-17T05:46:45.612Z,500.00
2023-05-17T05:47:45.894Z,500.00
2023-05-17T05:48:45.663Z,500.00
2023-05-17T05:49:44.495Z,453.00
2023-05-17T05:50:44.757Z,458.00
2023-05-17T05:54:50.857Z,500.00
2023-05-17T05:55:51.324Z,500.00
2023-05-17T05:56:50.690Z,500.00
2023-05-17T05:57:51.665Z,500.00
2023-05-17T05:58:51.821Z,500.00
2023-05-17T05:59:51.676Z,500.00
2023-05-17T06:00:51.990Z,458.00
2023-05-17T06:01:51.709Z,502.00
2023-05-17T06:02:50.714Z,497.00
2023-05-17T06:03:51.701Z,509.00
2023-05-17T06:04:50.694Z,508.00
2023-05-17T06:05:50.774Z,504.00
2023-05-17T06:06:50.633Z,515.00
2023-05-17T06:07:50.665Z,533.00
2023-05-17T06:08:51.696Z,555.00
2023-05-17T06:09:51.596Z,479.00
2023-05-17T06:10:51.619Z,595.00
2023-05-17T06:11:50.678Z,639.00
2023-05-17T06:12:51.634Z,650.00
2023-05-17T06:13:51.691Z,582.00
2023-05-17T06:14:50.871Z,483.00
2023-05-17T06:15:51.765Z,515.00
2023-05-17T06:16:51.757Z,592.00
2023-05-17T06:17:52.106Z,657.00
2023-05-17T06:18:51.527Z,877.00
2023-05-17T06:19:51.929Z,931.00
2023-05-17T06:20:50.952Z,624.00
2023-05-17T06:21:50.982Z,622.00
2023-05-17T06:22:52.027Z,721.00
2023-05-17T06:23:52.033Z,740.00
2023-05-17T06:24:51.079Z,733.00
2023-05-17T06:25:51.182Z,651.00
2023-05-17T06:26:52.227Z,606.00
2023-05-17T06:27:51.253Z,662.00
2023-05-17T06:28:52.205Z,1074.00
2023-05-17T06:29:52.239Z,696.00
2023-05-17T06:30:52.452Z,651.00
2023-05-17T06:31:52.358Z,660.00
2023-05-17T06:32:52.439Z,581.00
2023-05-17T06:33:52.490Z,505.00
2023-05-17T06:34:52.417Z,506.00
2023-05-17T06:35:56.904Z,504.00
2023-05-17T06:36:52.397Z,505.00
2023-05-17T06:37:51.391Z,519.00
2023-05-17T06:38:51.448Z,533.00
2023-05-17T06:40:00.022Z,572.00
2023-05-17T06:40:52.399Z,510.00
2023-05-17T06:41:51.456Z,529.00
2023-05-17T06:42:51.462Z,552.00
2023-05-17T06:43:52.738Z,554.00
2023-05-17T06:44:52.392Z,508.00
2023-05-17T06:45:51.335Z,480.00
2023-05-17T06:46:52.421Z,503.00
2023-05-17T06:47:55.457Z,510.00
2023-05-17T06:48:52.414Z,511.00
2023-05-17T06:49:51.295Z,518.00
2023-05-17T06:50:52.376Z,538.00
2023-05-17T06:51:52.270Z,575.00
2023-05-17T06:52:52.265Z,490.00
2023-05-17T06:53:51.294Z,609.00
2023-05-17T06:54:52.240Z,765.00
2023-05-17T06:55:52.537Z,811.00
2023-05-17T06:56:52.249Z,668.00
2023-05-17T06:57:51.225Z,575.00
2023-05-17T06:58:51.231Z,613.00
2023-05-17T06:59:52.218Z,745.00
2023-05-17T07:00:51.270Z,630.00
2023-05-17T07:01:52.196Z,587.00
2023-05-17T07:02:52.332Z,659.00
2023-05-17T07:03:51.327Z,800.00
2023-05-17T07:04:52.250Z,704.00
2023-05-17T07:05:52.199Z,660.00
2023-05-17T07:06:52.157Z,627.00
2023-05-17T07:07:51.164Z,495.00
2023-05-17T07:08:51.186Z,554.00
2023-05-17T07:09:51.119Z,1011.00
2023-05-17T07:10:51.157Z,1547.00
2023-05-17T07:11:52.165Z,1728.00
2023-05-17T07:12:52.132Z,1507.00
2023-05-17T07:13:54.299Z,1240.00
2023-05-17T07:14:52.115Z,1122.00
2023-05-17T07:15:51.196Z,1035.00
2023-05-17T07:16:51.110Z,1054.00
2023-05-17T07:17:52.135Z,1014.00
2023-05-17T07:18:52.265Z,1087.00
2023-05-17T07:19:52.187Z,1073.00
2023-05-17T07:20:52.067Z,1303.00
2023-05-17T07:21:52.119Z,1152.00
2023-05-17T07:22:52.054Z,797.00
2023-05-17T07:23:52.035Z,521.00
2023-05-17T07:24:52.038Z,2184.00
2023-05-17T07:25:51.102Z,2085.00
2023-05-17T07:26:52.653Z,2036.00
2023-05-17T07:27:52.015Z,1795.00
2023-05-17T07:28:52.018Z,1388.00
2023-05-17T07:29:52.013Z,1423.00
2023-05-17T07:30:52.000Z,1029.00
2023-05-17T07:31:51.984Z,1453.00
2023-05-17T07:32:52.158Z,1644.00
2023-05-17T07:33:51.988Z,1726.00
2023-05-17T07:34:52.601Z,1901.00
2023-05-17T07:35:52.000Z,1435.00
2023-05-17T07:36:52.156Z,783.00
2023-05-17T07:37:51.945Z,606.00
2023-05-17T07:38:52.030Z,1084.00
2023-05-17T07:39:52.944Z,1792.00
2023-05-17T07:40:51.946Z,1920.00
2023-05-17T07:41:51.967Z,1219.00
2023-05-17T07:42:51.925Z,1144.00
2023-05-17T07:43:51.930Z,1245.00
2023-05-17T07:44:51.941Z,1336.00
2023-05-17T07:45:52.072Z,1340.00
2023-05-17T07:46:52.014Z,1124.00
2023-05-17T07:47:53.209Z,1011.00
2023-05-17T07:48:51.265Z,805.00
2023-05-17T07:49:51.199Z,643.00
2023-05-17T07:50:52.760Z,589.00
2023-05-17T07:51:51.126Z,595.00
2023-05-17T07:52:51.177Z,622.00
2023-05-17T07:53:52.218Z,636.00
2023-05-17T07:54:52.199Z,816.00
2023-05-17T07:55:51.268Z,907.00
2023-05-17T07:56:52.253Z,924.00
2023-05-17T08:02:04.360Z,500.00
2023-05-17T08:04:22.996Z,500.00
2023-05-17T08:07:41.138Z,500.00
2023-05-17T08:08:41.999Z,500.00
2023-05-17T08:11:01.095Z,500.00
2023-05-17T08:14:40.251Z,500.00
2023-05-17T08:18:19.374Z,500.00
2023-05-17T08:20:39.211Z,500.00
2023-05-17T08:21:38.533Z,500.00
2023-05-17T08:22:37.085Z,500.00
2023-05-17T08:23:38.330Z,500.00
2023-05-17T08:24:38.235Z,500.00
2023-05-17T08:25:44.877Z,500.00
2023-05-17T08:26:38.038Z,500.00
2023-05-17T08:27:39.041Z,500.00
2023-05-17T08:28:37.087Z,500.00
2023-05-17T08:30:56.391Z,500.00
2023-05-17T08:31:57.715Z,500.00
2023-05-17T08:32:57.475Z,500.00
2023-05-17T08:33:57.899Z,500.00
2023-05-17T08:34:56.203Z,500.00
2023-05-17T08:35:56.295Z,491.00
2023-05-17T08:36:57.344Z,556.00
2023-05-17T08:37:57.165Z,513.00
2023-05-17T08:38:56.817Z,400.00
2023-05-17T08:39:56.331Z,422.00
2023-05-17T08:40:56.227Z,532.00
2023-05-17T08:41:57.827Z,563.00
2023-05-17T08:42:57.375Z,511.00
2023-05-17T08:43:57.157Z,464.00
2023-05-17T08:44:56.157Z,500.00
2023-05-17T08:45:57.470Z,552.00
2023-05-17T08:46:57.221Z,547.00
2023-05-17T08:47:57.242Z,608.00
2023-05-17T08:48:57.346Z,558.00
2023-05-17T08:49:56.285Z,498.00
2023-05-17T08:50:57.466Z,563.00
2023-05-17T08:51:56.407Z,565.00
2023-05-17T08:52:56.483Z,608.00
2023-05-17T08:53:57.486Z,634.00
2023-05-17T08:54:56.660Z,651.00
2023-05-17T08:55:56.678Z,799.00
2023-05-17T08:56:57.601Z,584.00
2023-05-17T08:57:57.627Z,655.00
2023-05-17T08:58:57.844Z,820.00
2023-05-17T08:59:57.696Z,867.00
2023-05-17T09:00:56.952Z,639.00
2023-05-17T09:01:57.753Z,642.00
2023-05-17T09:02:56.939Z,541.00
2023-05-17T09:03:57.808Z,536.00
2023-05-17T09:04:57.920Z,597.00
2023-05-17T09:05:57.966Z,610.00
2023-05-17T09:06:57.887Z,500.00
2023-05-17T09:07:56.949Z,457.00
2023-05-17T09:08:57.005Z,532.00
2023-05-17T09:09:58.188Z,591.00
2023-05-17T09:10:58.039Z,557.00
2023-05-17T09:11:57.973Z,564.00
2023-05-17T09:12:58.428Z,590.00
2023-05-17T09:13:57.944Z,647.00
2023-05-17T09:14:57.197Z,633.00
2023-05-17T09:15:58.216Z,640.00
2023-05-17T09:16:57.181Z,742.00
2023-05-17T09:17:58.303Z,971.00
2023-05-17T09:18:58.627Z,1211.00
2023-05-17T09:22:36.397Z,500.00
2023-05-17T09:23:36.490Z,500.00
2023-05-17T09:24:37.331Z,500.00
2023-05-17T09:25:36.285Z,500.00
2023-05-17T09:26:37.759Z,500.00
2023-05-17T09:27:37.305Z,473.00
2023-05-17T09:28:37.264Z,400.00
2023-05-17T09:29:36.312Z,400.00
2023-05-17T09:30:36.257Z,406.00
2023-05-17T09:31:37.384Z,400.00
2023-05-17T09:32:36.240Z,453.00
2023-05-17T09:33:36.264Z,491.00
2023-05-17T09:34:36.286Z,475.00
2023-05-17T09:35:37.202Z,513.00
2023-05-17T09:36:37.229Z,619.00
2023-05-17T09:37:37.183Z,775.00
2023-05-17T09:38:36.204Z,596.00
2023-05-17T09:39:37.210Z,496.00
2023-05-17T09:40:37.241Z,499.00
2023-05-17T09:41:37.285Z,500.00
2023-05-17T09:42:37.286Z,500.00
2023-05-17T09:43:36.234Z,528.00
2023-05-17T09:44:37.212Z,595.00
2023-05-17T09:45:37.248Z,679.00
2023-05-17T09:46:37.284Z,1002.00
2023-05-17T09:47:37.390Z,974.00
2023-05-17T09:48:37.469Z,1022.00
2023-05-17T09:49:37.365Z,911.00
2023-05-17T09:50:37.391Z,1051.00
2023-05-17T09:51:36.765Z,1181.00
2023-05-17T09:52:37.606Z,1229.00
2023-05-17T09:53:39.760Z,1035.00
2023-05-17T09:54:37.507Z,947.00
2023-05-17T09:55:39.268Z,903.00
2023-05-17T09:56:36.497Z,739.00
2023-05-17T09:57:36.651Z,745.00
2023-05-17T09:58:37.065Z,809.00
2023-05-17T09:59:37.466Z,879.00
2023-05-17T10:00:37.452Z,980.00
2023-05-17T10:01:37.488Z,1062.00
2023-05-17T10:02:36.534Z,1117.00
2023-05-17T10:03:36.665Z,1155.00
2023-05-17T10:04:37.968Z,955.00
2023-05-17T10:05:36.460Z,613.00
2023-05-17T10:06:46.361Z,601.00
2023-05-17T10:07:38.286Z,601.00
2023-05-17T10:08:38.414Z,602.00
2023-05-17T10:09:36.401Z,533.00
2023-05-17T10:10:37.441Z,559.00
2023-05-17T10:11:37.388Z,563.00
2023-05-17T10:12:37.361Z,583.00
2023-05-17T10:13:36.427Z,687.00
2023-05-17T10:14:37.533Z,1100.00
2023-05-17T10:15:37.495Z,1422.00
2023-05-17T10:16:37.609Z,774.00
2023-05-17T10:17:37.671Z,873.00
2023-05-17T10:18:37.807Z,641.00
2023-05-17T10:19:37.826Z,639.00
2023-05-17T10:20:37.681Z,515.00
2023-05-17T10:21:37.708Z,506.00
2023-05-17T10:22:37.705Z,506.00
2023-05-17T10:23:37.729Z,781.00
2023-05-17T10:24:36.801Z,718.00
2023-05-17T10:25:37.848Z,625.00
2023-05-17T10:26:37.852Z,641.00
2023-05-17T10:27:37.932Z,583.00
2023-05-17T10:28:37.902Z,627.00
2023-05-17T10:29:37.938Z,714.00
2023-05-17T10:30:38.019Z,852.00
2023-05-17T10:31:37.029Z,1099.00
2023-05-17T10:32:38.052Z,988.00
2023-05-17T10:33:38.133Z,924.00
2023-05-17T10:34:37.068Z,826.00
2023-05-17T10:35:38.610Z,762.00
2023-05-17T10:36:38.361Z,834.00
2023-05-17T10:37:38.242Z,1011.00
2023-05-17T10:38:42.677Z,922.00
2023-05-17T10:39:38.324Z,899.00
2023-05-17T10:40:38.188Z,941.00
2023-05-17T10:41:38.279Z,1006.00
2023-05-17T10:42:37.378Z,1194.00
2023-05-17T10:43:38.139Z,1439.00
2023-05-17T10:44:38.126Z,1564.00
2023-05-17T10:45:37.115Z,1321.00
2023-05-17T10:46:38.396Z,1444.00
2023-05-17T10:47:38.239Z,1751.00
2023-05-17T10:48:38.340Z,1637.00
2023-05-17T10:49:38.120Z,1537.00
2023-05-17T10:50:38.532Z,1528.00
2023-05-17T10:51:38.160Z,1481.00
2023-05-17T10:52:38.239Z,1457.00
2023-05-17T10:53:38.924Z,1217.00
2023-05-17T10:56:00.430Z,500.00
2023-05-17T10:57:01.011Z,500.00
2023-05-17T10:58:00.010Z,500.00
2023-05-17T10:59:00.968Z,500.00
2023-05-17T11:00:00.933Z,500.00
2023-05-17T11:01:00.411Z,500.00
2023-05-17T11:02:01.028Z,528.00
2023-05-17T11:03:01.187Z,568.00
2023-05-17T11:04:00.914Z,540.00
2023-05-17T11:04:59.968Z,548.00
2023-05-17T11:06:00.953Z,550.00
2023-05-17T11:07:00.837Z,583.00
2023-05-17T11:08:01.033Z,626.00
2023-05-17T11:09:00.014Z,560.00
2023-05-17T11:10:01.036Z,488.00
2023-05-17T11:11:01.116Z,500.00
2023-05-17T11:12:00.100Z,538.00
2023-05-17T11:13:00.107Z,581.00
2023-05-17T11:14:00.214Z,637.00
2023-05-17T11:15:00.208Z,579.00
2023-05-17T11:16:01.292Z,419.00
2023-05-17T11:17:00.744Z,443.00
2023-05-17T11:18:01.518Z,564.00
2023-05-17T11:19:01.613Z,604.00
2023-05-17T11:20:00.560Z,580.00
2023-05-17T11:21:01.767Z,565.00
2023-05-17T11:22:02.065Z,500.00
2023-05-17T11:23:00.480Z,450.00
2023-05-17T11:24:01.489Z,428.00
2023-05-17T11:25:01.824Z,428.00
2023-05-17T11:26:12.763Z,504.00
2023-05-17T11:27:01.555Z,507.00
2023-05-17T11:28:01.552Z,507.00
2023-05-17T11:29:01.532Z,504.00
2023-05-17T11:31:20.379Z,500.00
2023-05-17T11:32:21.099Z,500.00
2023-05-17T11:33:32.934Z,500.00
2023-05-17T11:34:21.021Z,500.00
2023-05-17T11:35:21.142Z,500.00
2023-05-17T11:36:20.991Z,500.00
2023-05-17T11:37:19.919Z,500.00
2023-05-17T11:38:20.911Z,500.00
2023-05-17T11:39:20.908Z,563.00
2023-05-17T11:40:20.882Z,785.00
2023-05-17T11:42:19.868Z,557.00
2023-05-17T11:43:22.853Z,596.00
2023-05-17T11:44:20.851Z,603.00
2023-05-17T11:45:21.180Z,617.00
2023-05-17T11:46:19.826Z,600.00
2023-05-17T11:47:20.880Z,531.00
2023-05-17T11:48:19.886Z,502.00
2023-05-17T11:49:34.184Z,496.00
2023-05-17T11:50:20.836Z,497.00
2023-05-17T11:51:21.215Z,501.00
2023-05-17T11:52:19.800Z,496.00
2023-05-17T11:53:20.809Z,439.00
2023-05-17T11:54:19.767Z,408.00
2023-05-17T11:55:20.803Z,400.00
2023-05-17T11:56:24.193Z,400.00
2023-05-17T11:57:20.757Z,498.00
2023-05-17T11:58:20.789Z,466.00
2023-05-17T11:59:20.761Z,483.00
2023-05-17T12:00:19.745Z,618.00
2023-05-17T12:01:20.762Z,685.00
2023-05-17T12:02:19.738Z,645.00
2023-05-17T12:03:19.705Z,559.00
2023-05-17T12:04:20.758Z,735.00
2023-05-17T12:05:19.854Z,791.00
2023-05-17T12:06:20.775Z,700.00
2023-05-17T12:07:20.698Z,521.00
2023-05-17T12:08:20.670Z,478.00
2023-05-17T12:09:20.718Z,446.00
2023-05-17T12:10:20.966Z,479.00
2023-05-17T12:11:20.667Z,567.00
2023-05-17T12:12:19.674Z,608.00
2023-05-17T12:13:20.647Z,529.00
2023-05-17T12:14:19.643Z,574.00
2023-05-17T12:15:20.793Z,515.00
2023-05-17T12:16:19.671Z,622.00
2023-05-17T12:17:20.635Z,697.00
2023-05-17T12:18:20.775Z,648.00
2023-05-17T12:19:20.795Z,608.00
2023-05-17T12:20:19.685Z,627.00
2023-05-17T12:21:20.773Z,531.00
2023-05-17T12:22:20.609Z,545.00
2023-05-17T12:23:20.627Z,484.00
2023-05-17T12:24:19.688Z,493.00
2023-05-17T12:25:19.614Z,500.00
2023-05-17T12:26:19.619Z,506.00
2023-05-17T12:27:19.592Z,527.00
2023-05-17T12:28:19.553Z,650.00
2023-05-17T12:29:20.650Z,654.00
2023-05-17T12:30:20.574Z,627.00
2023-05-17T12:31:20.573Z,628.00
2023-05-17T12:32:19.659Z,666.00
2023-05-17T12:33:20.820Z,641.00
2023-05-17T12:34:20.532Z,715.00
2023-05-17T12:35:20.510Z,656.00
2023-05-17T12:36:19.523Z,660.00
2023-05-17T12:37:20.560Z,682.00
2023-05-17T12:38:19.518Z,662.00
2023-05-17T12:39:19.518Z,767.00
2023-05-17T12:40:19.491Z,836.00
2023-05-17T12:41:19.478Z,732.00
2023-05-17T12:42:20.462Z,1159.00
2023-05-17T12:43:20.664Z,1277.00
2023-05-17T12:44:19.584Z,954.00
2023-05-17T12:45:20.567Z,796.00
2023-05-17T12:46:20.750Z,636.00
2023-05-17T12:47:20.658Z,470.00
2023-05-17T12:48:19.768Z,400.00
2023-05-17T12:49:20.745Z,418.00
2023-05-17T12:50:19.776Z,472.00
2023-05-17T12:51:20.817Z,491.00
2023-05-17T12:52:20.848Z,499.00
2023-05-17T12:53:19.845Z,513.00
2023-05-17T12:54:19.846Z,524.00
2023-05-17T12:55:19.934Z,489.00
2023-05-17T12:56:20.919Z,500.00
2023-05-17T12:57:20.966Z,517.00
2023-05-17T12:58:20.983Z,584.00
2023-05-17T12:59:19.968Z,566.00
2023-05-17T13:00:20.957Z,555.00
2023-05-17T13:01:20.041Z,546.00
2023-05-17T13:02:21.212Z,551.00
2023-05-17T13:03:21.194Z,561.00
2023-05-17T13:04:20.095Z,576.00
2023-05-17T13:05:21.080Z,605.00
2023-05-17T13:06:21.135Z,601.00
2023-05-17T13:07:20.104Z,641.00
2023-05-17T13:08:21.136Z,839.00
2023-05-17T13:09:20.201Z,825.00
2023-05-17T13:10:20.192Z,873.00
2023-05-17T13:11:21.198Z,863.00
2023-05-17T13:12:21.294Z,750.00
2023-05-17T13:13:21.536Z,625.00
2023-05-17T13:14:21.273Z,620.00
2023-05-17T13:15:20.327Z,612.00
2023-05-17T13:16:20.403Z,659.00
2023-05-17T13:17:21.428Z,925.00
2023-05-17T13:18:21.662Z,977.00
2023-05-17T13:19:21.636Z,810.00
2023-05-17T13:20:21.436Z,710.00
2023-05-17T13:21:21.487Z,692.00
2023-05-17T13:22:20.531Z,803.00
2023-05-17T13:23:21.559Z,946.00
2023-05-17T13:24:21.637Z,1078.00
2023-05-17T13:25:21.652Z,1001.00
2023-05-17T13:26:21.663Z,736.00
2023-05-17T13:27:20.675Z,652.00
2023-05-17T13:28:20.696Z,572.00
2023-05-17T13:29:31.593Z,497.00
2023-05-17T13:30:21.735Z,479.00
2023-05-17T13:31:21.712Z,501.00
2023-05-17T13:32:20.712Z,513.00
2023-05-17T13:33:21.769Z,546.00
2023-05-17T13:34:21.661Z,589.00
2023-05-17T13:35:21.669Z,613.00
2023-05-17T13:36:20.688Z,696.00
2023-05-17T13:37:20.641Z,1136.00
2023-05-17T13:38:21.668Z,1212.00
2023-05-17T13:39:20.647Z,1415.00
2023-05-17T13:40:21.630Z,1283.00
2023-05-17T13:41:21.645Z,1648.00
2023-05-17T13:42:20.655Z,1797.00
2023-05-17T13:43:20.630Z,1615.00
2023-05-17T13:44:21.602Z,1593.00
2023-05-17T13:45:21.607Z,1631.00
2023-05-17T13:46:20.583Z,1690.00
2023-05-17T13:47:21.594Z,1454.00
2023-05-17T13:48:21.693Z,1214.00